Time;durP1;ratioP1;P1;durP2;ratioP2;P2;SDS_P1;SDS_P2;PMS_P1;PMS_P2;Temp;Humidity;BMP_temperature;BMP_pressure;BME280_temperature;BME280_humidity;BME280_pressure;Samples;Min_cycle;Max_cycle;Signal;HPM_P1;HPM_P2
2021/10/27 00:01:45;;;;;;;15.57;2.05;;;15.40;92.40;;;;;;5045262;28;20075;-60
2021/10/27 00:04:12;;;;;;;12.35;2.70;;;15.40;92.30;;;;;;5047577;28;20076;-60
2021/10/27 00:06:39;;;;;;;9.80;2.17;;;15.40;92.30;;;;;;5045227;28;20087;-61
2021/10/27 00:09:06;;;;;;;14.48;2.42;;;15.40;92.20;;;;;;5046311;28;20065;-60
2021/10/27 00:11:33;;;;;;;7.35;1.58;;;15.40;92.20;;;;;;5041139;28;20094;-60
2021/10/27 00:14:00;;;;;;;12.88;2.15;;;15.50;92.20;;;;;;5049974;28;20132;-61
2021/10/27 00:16:28;;;;;;;15.20;2.65;;;15.50;92.20;;;;;;5040840;28;20041;-61
2021/10/27 00:18:55;;;;;;;15.30;2.03;;;15.50;92.20;;;;;;5050002;28;20048;-60
2021/10/27 00:21:22;;;;;;;6.95;2.42;;;15.50;92.40;;;;;;5041314;28;20103;-61
2021/10/27 00:23:49;;;;;;;14.90;2.35;;;15.50;92.10;;;;;;5047743;28;20068;-61
2021/10/27 00:26:15;;;;;;;11.35;2.40;;;15.50;92.20;;;;;;5046998;28;20093;-61
2021/10/27 00:28:42;;;;;;;19.02;2.30;;;15.50;92.20;;;;;;5036062;28;20084;-60
2021/10/27 00:31:10;;;;;;;23.58;4.85;;;15.50;92.30;;;;;;5038496;28;20152;-62
2021/10/27 00:33:37;;;;;;;7.22;1.55;;;15.50;92.40;;;;;;5040671;28;20136;-62
2021/10/27 00:36:05;;;;;;;11.77;2.58;;;15.50;92.50;;;;;;5035635;28;20101;-62
2021/10/27 00:38:32;;;;;;;19.75;2.58;;;15.50;92.70;;;;;;5038690;28;20488;-60
2021/10/27 00:40:59;;;;;;;12.88;3.30;;;15.40;92.60;;;;;;5045330;28;20045;-62
2021/10/27 00:43:26;;;;;;;11.10;3.53;;;15.40;92.80;;;;;;5039485;28;20053;-61
2021/10/27 00:45:52;;;;;;;6.15;1.33;;;15.50;92.70;;;;;;5033950;28;20037;-60
2021/10/27 00:48:19;;;;;;;13.40;2.00;;;15.50;92.70;;;;;;5043352;28;20092;-61
2021/10/27 00:50:46;;;;;;;7.88;2.83;;;15.50;92.70;;;;;;5047326;28;20076;-60
2021/10/27 00:53:13;;;;;;;8.25;1.73;;;15.50;92.60;;;;;;5042030;28;20050;-60
2021/10/27 00:55:40;;;;;;;15.48;2.47;;;15.50;92.60;;;;;;5041817;28;20049;-60
2021/10/27 00:58:07;;;;;;;11.02;1.88;;;15.50;92.50;;;;;;5044960;28;20081;-59
2021/10/27 01:00:35;;;;;;;11.13;3.15;;;15.50;92.30;;;;;;5046309;28;20057;-60
2021/10/27 01:03:02;;;;;;;11.82;3.65;;;15.60;92.30;;;;;;5038013;28;20045;-62
2021/10/27 01:05:30;;;;;;;9.10;1.65;;;15.50;92.30;;;;;;5046130;28;20041;-60
2021/10/27 01:07:57;;;;;;;6.38;1.60;;;15.60;92.20;;;;;;5041486;28;20049;-60
2021/10/27 01:10:24;;;;;;;10.02;1.85;;;15.50;92.20;;;;;;5048510;28;20106;-61
2021/10/27 01:12:50;;;;;;;6.43;2.00;;;15.60;92.20;;;;;;5044698;28;20077;-61
2021/10/27 01:15:18;;;;;;;6.55;2.08;;;15.60;92.20;;;;;;5046374;28;20141;-61
2021/10/27 01:17:45;;;;;;;9.52;1.92;;;15.50;92.20;;;;;;5046676;28;20049;-60
2021/10/27 01:20:13;;;;;;;11.60;1.98;;;15.50;92.30;;;;;;5037328;28;20072;-59
2021/10/27 01:22:40;;;;;;;6.80;1.38;;;15.50;92.30;;;;;;5048582;28;20095;-61
2021/10/27 01:25:09;;;;;;;9.93;2.20;;;15.50;92.40;;;;;;5045056;28;20050;-64
2021/10/27 01:27:44;;;;;;;10.68;1.75;;;15.50;92.30;;;;;;5038628;28;20060;-60
2021/10/27 01:30:19;;;;;;;9.18;1.60;;;15.50;92.50;;;;;;5044248;28;20049;-61
2021/10/27 01:32:46;;;;;;;9.57;1.95;;;15.50;92.30;;;;;;5048752;28;20103;-61
2021/10/27 01:35:13;;;;;;;14.60;3.22;;;15.50;92.40;;;;;;5041954;28;20526;-60
2021/10/27 01:37:40;;;;;;;8.30;2.45;;;15.50;92.30;;;;;;5041701;28;20087;-60
2021/10/27 01:40:15;;;;;;;8.55;1.58;;;15.40;92.30;;;;;;5034563;28;20045;-59
2021/10/27 01:42:41;;;;;;;7.03;1.58;;;15.50;92.20;;;;;;5038927;28;20045;-60
2021/10/27 01:45:09;;;;;;;9.95;1.80;;;15.50;92.10;;;;;;5044866;28;20140;-62
2021/10/27 01:47:36;;;;;;;4.90;1.65;;;15.50;92.00;;;;;;5045217;28;20045;-61
2021/10/27 01:50:03;;;;;;;7.03;1.33;;;15.50;91.70;;;;;;5039926;28;20048;-60
2021/10/27 01:52:30;;;;;;;5.78;1.05;;;15.60;91.30;;;;;;5041801;28;20046;-61
2021/10/27 01:54:56;;;;;;;8.05;1.40;;;15.60;91.60;;;;;;5046347;28;20084;-59
2021/10/27 01:57:24;;;;;;;8.20;1.60;;;15.60;91.50;;;;;;5045988;28;20045;-61
2021/10/27 01:59:50;;;;;;;12.57;1.83;;;15.60;91.50;;;;;;5040976;28;20054;-59
2021/10/27 02:02:17;;;;;;;9.00;1.77;;;15.60;91.40;;;;;;5045819;28;20127;-60
2021/10/27 02:04:44;;;;;;;12.07;2.92;;;15.60;91.30;;;;;;5037994;28;20045;-60
2021/10/27 02:07:11;;;;;;;9.77;1.23;;;15.50;91.20;;;;;;5048267;28;20048;-61
2021/10/27 02:09:38;;;;;;;11.75;2.05;;;15.50;91.50;;;;;;5049310;28;20114;-61
2021/10/27 02:12:06;;;;;;;12.75;2.05;;;15.50;91.50;;;;;;5041326;28;20045;-60
2021/10/27 02:14:33;;;;;;;8.10;1.35;;;15.50;91.60;;;;;;5038695;28;20063;-59
2021/10/27 02:17:00;;;;;;;15.32;2.75;;;15.50;91.70;;;;;;5045583;28;20041;-61
2021/10/27 02:19:27;;;;;;;7.43;2.15;;;15.50;91.70;;;;;;5037962;28;20095;-60
2021/10/27 02:21:53;;;;;;;7.35;1.88;;;15.50;91.80;;;;;;5046309;28;20136;-62
2021/10/27 02:24:21;;;;;;;5.47;1.88;;;15.50;91.80;;;;;;5053180;28;20060;-60
2021/10/27 02:26:47;;;;;;;14.35;2.42;;;15.50;91.80;;;;;;5043760;28;20049;-60
2021/10/27 02:29:14;;;;;;;12.10;2.20;;;15.50;91.90;;;;;;5046216;28;20474;-60
2021/10/27 02:31:41;;;;;;;12.88;2.40;;;15.50;91.90;;;;;;5043866;28;20138;-61
2021/10/27 02:34:08;;;;;;;12.90;1.33;;;15.40;91.90;;;;;;5045414;28;20080;-61
2021/10/27 02:36:35;;;;;;;5.28;1.77;;;15.40;91.90;;;;;;5043941;28;20527;-60
2021/10/27 02:39:02;;;;;;;11.32;1.55;;;15.40;91.90;;;;;;5044223;28;20044;-60
2021/10/27 02:41:28;;;;;;;9.60;2.08;;;15.50;92.00;;;;;;5048062;28;20081;-60
2021/10/27 02:43:55;;;;;;;14.00;2.38;;;15.50;92.10;;;;;;5043822;28;20139;-61
2021/10/27 02:46:22;;;;;;;8.48;1.08;;;15.40;92.20;;;;;;5045257;28;20049;-60
2021/10/27 02:48:49;;;;;;;12.70;1.75;;;15.40;92.20;;;;;;5038791;28;20149;-60
2021/10/27 02:51:16;;;;;;;6.60;1.15;;;15.40;92.20;;;;;;5046736;28;20099;-60
2021/10/27 02:53:43;;;;;;;3.03;1.00;;;15.40;92.30;;;;;;5036238;28;20053;-61
2021/10/27 02:56:10;;;;;;;6.13;1.10;;;15.30;92.30;;;;;;5040554;28;20072;-61
2021/10/27 02:58:37;;;;;;;6.47;1.10;;;15.40;92.20;;;;;;5045882;28;20090;-60
2021/10/27 03:01:05;;;;;;;5.72;1.20;;;15.30;92.20;;;;;;5038538;28;20044;-60
2021/10/27 03:03:32;;;;;;;5.47;0.75;;;15.40;92.00;;;;;;5039039;28;20046;-61
2021/10/27 03:05:59;;;;;;;4.70;0.68;;;15.30;91.70;;;;;;5047131;28;20472;-62
2021/10/27 03:08:26;;;;;;;8.80;0.90;;;15.40;91.30;;;;;;5041306;28;20124;-61
2021/10/27 03:10:53;;;;;;;1.98;0.70;;;15.30;91.30;;;;;;5046696;28;20049;-60
2021/10/27 03:13:20;;;;;;;3.20;0.80;;;15.40;91.00;;;;;;5041537;28;20049;-60
2021/10/27 03:15:46;;;;;;;2.40;0.70;;;15.40;90.90;;;;;;5039158;28;20091;-59
2021/10/27 03:18:14;;;;;;;2.28;0.95;;;15.40;90.70;;;;;;5042707;28;20689;-62
2021/10/27 03:20:41;;;;;;;1.67;0.68;;;15.40;90.70;;;;;;5044921;28;20549;-61
2021/10/27 03:23:08;;;;;;;5.57;0.80;;;15.40;91.00;;;;;;5042273;28;20082;-62
2021/10/27 03:25:34;;;;;;;1.50;0.55;;;15.40;90.80;;;;;;5035379;28;20084;-59
2021/10/27 03:28:01;;;;;;;5.28;0.80;;;15.40;91.10;;;;;;5043435;28;20054;-61
2021/10/27 03:30:28;;;;;;;2.33;1.00;;;15.30;91.00;;;;;;5040103;28;20057;-60
2021/10/27 03:32:55;;;;;;;5.00;0.77;;;15.40;91.10;;;;;;5045834;28;20535;-59
2021/10/27 03:35:22;;;;;;;6.50;0.80;;;15.40;91.10;;;;;;5037260;28;20132;-59
2021/10/27 03:37:49;;;;;;;7.50;3.05;;;15.40;91.20;;;;;;5049578;28;20503;-60
2021/10/27 03:40:16;;;;;;;6.70;0.82;;;15.30;91.00;;;;;;5036704;28;20095;-61
2021/10/27 03:42:44;;;;;;;8.82;1.15;;;15.30;91.20;;;;;;5042451;28;20081;-60
2021/10/27 03:45:10;;;;;;;2.40;0.70;;;15.30;91.20;;;;;;5036732;28;20087;-61
2021/10/27 03:47:37;;;;;;;6.70;1.45;;;15.30;91.30;;;;;;5044501;28;20496;-62
2021/10/27 03:50:05;;;;;;;4.20;0.80;;;15.30;91.30;;;;;;5043085;28;20556;-61
2021/10/27 03:52:32;;;;;;;11.98;1.40;;;15.30;91.30;;;;;;5035654;28;20122;-62
2021/10/27 03:54:58;;;;;;;6.53;0.80;;;15.30;91.30;;;;;;5050052;28;20117;-60
2021/10/27 03:57:25;;;;;;;6.03;1.15;;;15.30;91.30;;;;;;5035595;28;20040;-61
2021/10/27 03:59:52;;;;;;;6.72;1.00;;;15.30;91.40;;;;;;5032552;28;20080;-61
2021/10/27 04:02:19;;;;;;;2.03;0.68;;;15.30;91.40;;;;;;5039087;28;20080;-59
2021/10/27 04:04:46;;;;;;;5.35;1.20;;;15.30;91.50;;;;;;5050365;28;20045;-60
2021/10/27 04:07:13;;;;;;;4.70;1.10;;;15.20;91.50;;;;;;5047723;28;20045;-60
2021/10/27 04:09:40;;;;;;;7.72;1.10;;;15.20;91.80;;;;;;5039521;28;20078;-61
2021/10/27 04:12:07;;;;;;;3.05;0.70;;;15.20;91.80;;;;;;5039000;28;20050;-60
2021/10/27 04:14:34;;;;;;;7.22;1.42;;;15.20;92.10;;;;;;5043091;28;20073;-60
2021/10/27 04:17:01;;;;;;;10.13;1.00;;;15.10;92.10;;;;;;5034416;28;20053;-60
2021/10/27 04:19:28;;;;;;;7.80;2.83;;;15.10;92.20;;;;;;5043340;28;20118;-60
2021/10/27 04:21:55;;;;;;;5.13;1.15;;;15.10;92.30;;;;;;5034112;28;20095;-61
2021/10/27 04:24:22;;;;;;;10.75;1.08;;;15.00;92.50;;;;;;5040003;28;20073;-60
2021/10/27 04:26:48;;;;;;;6.78;1.33;;;15.00;92.50;;;;;;5035962;28;20079;-61
2021/10/27 04:29:15;;;;;;;7.50;1.10;;;15.00;92.50;;;;;;5039130;28;20432;-60
2021/10/27 04:31:42;;;;;;;6.88;1.17;;;14.90;92.60;;;;;;5041925;28;20042;-60
2021/10/27 04:34:09;;;;;;;7.82;1.10;;;15.00;92.60;;;;;;5048794;28;20114;-59
2021/10/27 04:36:36;;;;;;;7.72;1.48;;;15.00;92.50;;;;;;5041002;28;20049;-59
2021/10/27 04:39:03;;;;;;;3.72;1.00;;;15.00;92.50;;;;;;5034653;28;20110;-60
2021/10/27 04:41:30;;;;;;;4.25;1.35;;;15.00;92.50;;;;;;5041510;28;20127;-61
2021/10/27 04:43:56;;;;;;;5.47;1.58;;;15.00;92.40;;;;;;5049209;28;20118;-61
2021/10/27 04:46:23;;;;;;;9.90;1.10;;;15.00;92.40;;;;;;5043199;28;20455;-61
2021/10/27 04:48:50;;;;;;;9.23;0.70;;;15.00;92.30;;;;;;5039287;28;20041;-61
2021/10/27 04:51:17;;;;;;;6.32;1.42;;;15.10;92.30;;;;;;5052418;28;20059;-60
2021/10/27 04:53:44;;;;;;;7.10;1.45;;;15.10;92.30;;;;;;5048070;28;20132;-59
2021/10/27 04:56:10;;;;;;;4.22;1.35;;;15.00;92.20;;;;;;5045527;28;20080;-61
2021/10/27 04:58:38;;;;;;;7.47;1.33;;;15.10;92.20;;;;;;5037899;28;20045;-60
2021/10/27 05:01:05;;;;;;;5.40;1.00;;;15.10;92.10;;;;;;5041150;28;20056;-60
2021/10/27 05:03:32;;;;;;;5.70;1.33;;;15.10;92.00;;;;;;5049090;28;20483;-59
2021/10/27 05:06:01;;;;;;;9.25;2.55;;;15.10;92.00;;;;;;5048683;28;20893;-60
2021/10/27 05:08:30;;;;;;;5.57;1.23;;;15.10;92.00;;;;;;5049307;28;20107;-60
2021/10/27 05:10:58;;;;;;;6.97;1.38;;;15.10;92.00;;;;;;5042765;28;20065;-60
2021/10/27 05:13:25;;;;;;;5.55;1.38;;;15.10;91.90;;;;;;5046963;28;20077;-61
2021/10/27 05:15:53;;;;;;;7.88;1.23;;;15.10;91.90;;;;;;5036192;28;20552;-59
2021/10/27 05:18:25;;;;;;;5.50;1.20;;;15.10;91.80;;;;;;5043365;28;20049;-61
2021/10/27 05:20:52;;;;;;;3.30;1.25;;;15.10;91.70;;;;;;5048753;28;20086;-62
2021/10/27 05:23:19;;;;;;;7.35;0.98;;;15.10;91.70;;;;;;5039951;28;20453;-60
2021/10/27 05:25:45;;;;;;;7.63;1.20;;;15.10;91.70;;;;;;5044568;28;20118;-59
2021/10/27 05:28:12;;;;;;;5.07;1.00;;;15.10;91.70;;;;;;5036611;28;20122;-62
2021/10/27 05:30:39;;;;;;;8.32;1.63;;;15.20;91.70;;;;;;5037714;28;20053;-60
2021/10/27 05:33:06;;;;;;;8.70;1.58;;;15.20;91.60;;;;;;5047710;28;20041;-60
2021/10/27 05:35:33;;;;;;;12.55;1.45;;;15.20;91.50;;;;;;5037048;28;20037;-59
2021/10/27 05:38:01;;;;;;;8.13;1.30;;;15.20;91.50;;;;;;5044421;28;20100;-60
2021/10/27 05:40:27;;;;;;;4.28;1.55;;;15.20;91.40;;;;;;5046377;28;20752;-60
2021/10/27 05:42:55;;;;;;;8.90;1.45;;;15.20;91.30;;;;;;5043182;28;20092;-61
2021/10/27 05:45:25;;;;;;;9.52;2.72;;;15.20;91.10;;;;;;5038452;28;20053;-60
2021/10/27 05:47:55;;;;;;;9.80;2.30;;;15.20;91.20;;;;;;5043219;28;20133;-60
2021/10/27 05:55:37;;;;;;;7.82;2.17;;;15.20;91.00;;;;;;5042889;28;20049;-60
2021/10/27 05:58:05;;;;;;;9.60;2.47;;;15.20;91.00;;;;;;5042591;28;20050;-60
2021/10/27 06:00:32;;;;;;;7.18;1.63;;;15.20;91.00;;;;;;5042432;28;20106;-61
2021/10/27 06:03:01;;;;;;;5.15;1.50;;;15.20;91.00;;;;;;5045652;28;20385;-59
2021/10/27 06:05:28;;;;;;;6.22;1.38;;;15.20;90.80;;;;;;5046955;28;20056;-61
2021/10/27 06:07:55;;;;;;;6.93;1.35;;;15.20;90.80;;;;;;5048124;28;20049;-60
2021/10/27 06:10:22;;;;;;;5.25;0.90;;;15.20;90.90;;;;;;5038295;28;20276;-61
2021/10/27 06:12:51;;;;;;;8.32;1.42;;;15.20;90.90;;;;;;5042978;28;20072;-60
2021/10/27 06:15:19;;;;;;;6.15;0.98;;;15.20;90.90;;;;;;5035489;28;20038;-62
2021/10/27 06:17:46;;;;;;;3.92;1.00;;;15.20;90.90;;;;;;5043587;28;20046;-60
2021/10/27 06:20:13;;;;;;;5.68;1.48;;;15.20;91.00;;;;;;5044568;28;20076;-61
2021/10/27 06:22:40;;;;;;;8.90;1.10;;;15.20;91.10;;;;;;5045656;28;20064;-61
2021/10/27 06:25:09;;;;;;;11.43;1.20;;;15.20;91.20;;;;;;5022672;28;20480;-61
2021/10/27 06:27:36;;;;;;;5.07;1.60;;;15.20;91.20;;;;;;5045273;28;20050;-59
2021/10/27 06:30:09;;;;;;;8.93;1.38;;;15.20;91.20;;;;;;5042330;28;20411;-60
2021/10/27 06:32:53;;;;;;;6.53;1.48;;;15.10;91.30;;;;;;5046207;28;20077;-61
2021/10/27 06:35:34;;;;;;;8.20;1.60;;;15.10;91.30;;;;;;5043324;28;20045;-61
2021/10/27 06:38:26;;;;;;;6.72;1.23;;;15.10;91.40;;;;;;5037343;28;20068;-61
2021/10/27 06:46:38;;;;;;;5.97;1.40;;;14.90;91.80;;;;;;5045029;28;20115;-60
2021/10/27 06:49:06;;;;;;;4.32;1.13;;;14.90;91.80;;;;;;5046114;28;20099;-61
2021/10/27 06:51:33;;;;;;;6.25;1.20;;;14.90;91.90;;;;;;5047470;28;20061;-61
2021/10/27 06:54:01;;;;;;;5.22;1.38;;;14.90;92.00;;;;;;5039176;28;20581;-60
2021/10/27 06:56:28;;;;;;;10.77;1.10;;;15.00;92.00;;;;;;5040193;28;20144;-61
2021/10/27 07:01:51;;;;;;;7.18;1.20;;;15.00;91.90;;;;;;5040537;28;20049;-61
2021/10/27 07:15:07;;;;;;;10.05;1.52;;;14.90;91.90;;;;;;5049632;28;20041;-59
2021/10/27 07:17:34;;;;;;;6.20;1.70;;;15.00;91.90;;;;;;5037291;28;20045;-60
2021/10/27 07:20:03;;;;;;;5.35;1.15;;;15.00;91.80;;;;;;5038125;28;20069;-61
2021/10/27 07:22:30;;;;;;;10.98;1.63;;;15.00;91.80;;;;;;5035257;28;20136;-60
2021/10/27 07:24:58;;;;;;;8.20;1.48;;;15.00;91.80;;;;;;5044020;28;20053;-60
2021/10/27 07:27:25;;;;;;;5.50;1.17;;;15.00;91.80;;;;;;5044740;28;20128;-60
2021/10/27 07:29:52;;;;;;;5.55;1.25;;;15.00;91.70;;;;;;5035974;28;20095;-61
2021/10/27 07:32:19;;;;;;;8.43;2.20;;;15.00;91.70;;;;;;5040069;28;20040;-61
2021/10/27 07:34:52;;;;;;;11.07;1.67;;;15.10;91.70;;;;;;5035107;28;20564;-60
2021/10/27 07:42:33;;;;;;;4.35;1.05;;;15.00;91.80;;;;;;5041012;28;20118;-60
2021/10/27 07:44:59;;;;;;;2.58;1.08;;;15.10;91.80;;;;;;5035262;28;20053;-63
2021/10/27 07:47:26;;;;;;;4.80;1.10;;;15.10;91.80;;;;;;5041311;28;20069;-60
2021/10/27 07:49:53;;;;;;;5.68;1.30;;;15.10;91.70;;;;;;5043475;28;20072;-59
2021/10/27 07:52:20;;;;;;;5.15;1.30;;;15.10;91.60;;;;;;5042019;28;20072;-60
2021/10/27 07:54:47;;;;;;;6.30;1.25;;;15.20;91.70;;;;;;5041166;28;20417;-60
2021/10/27 07:57:14;;;;;;;15.05;2.83;;;15.20;91.50;;;;;;5034998;28;20455;-60
2021/10/27 07:59:41;;;;;;;6.60;1.25;;;15.20;91.50;;;;;;5034199;28;20060;-60
2021/10/27 08:02:09;;;;;;;6.65;1.67;;;15.20;91.40;;;;;;5035870;28;20096;-61
2021/10/27 08:04:36;;;;;;;10.52;1.52;;;15.20;91.30;;;;;;5046208;28;20048;-60
2021/10/27 08:07:06;;;;;;;9.52;1.75;;;15.30;91.40;;;;;;5035313;28;20049;-59
2021/10/27 08:09:34;;;;;;;7.05;1.27;;;15.30;91.20;;;;;;5046377;28;20049;-59
2021/10/27 08:12:01;;;;;;;7.25;1.40;;;15.30;91.20;;;;;;5038549;28;20057;-59
2021/10/27 08:14:28;;;;;;;8.30;1.52;;;15.30;91.10;;;;;;5039613;28;20079;-60
2021/10/27 08:17:14;;;;;;;9.57;3.13;;;15.30;90.90;;;;;;5040848;28;20045;-60
2021/10/27 08:19:41;;;;;;;7.00;1.48;;;15.30;91.00;;;;;;5033686;28;20037;-60
2021/10/27 08:22:09;;;;;;;7.75;1.48;;;15.30;90.90;;;;;;5036036;28;20091;-61
2021/10/27 08:24:36;;;;;;;9.20;1.38;;;15.40;91.10;;;;;;5035657;28;20055;-60
2021/10/27 08:27:23;;;;;;;12.63;2.22;;;15.40;90.90;;;;;;5038742;28;20139;-60
2021/10/27 08:29:50;;;;;;;11.18;1.30;;;15.40;90.80;;;;;;5035081;28;20080;-60
2021/10/27 08:34:53;;;;;;;9.77;1.23;;;15.30;90.60;;;;;;5039628;28;20048;-60
2021/10/27 08:37:20;;;;;;;8.18;1.50;;;15.40;90.50;;;;;;5039189;28;20046;-60
2021/10/27 08:39:47;;;;;;;7.78;1.55;;;15.40;90.40;;;;;;5039160;28;20049;-61
2021/10/27 08:42:14;;;;;;;8.05;1.58;;;15.40;90.40;;;;;;5037888;28;20069;-60
2021/10/27 08:44:45;;;;;;;7.38;1.52;;;15.50;90.30;;;;;;5041596;28;20129;-60
2021/10/27 08:47:11;;;;;;;14.63;2.10;;;15.50;88.80;;;;;;5036973;28;20079;-61
2021/10/27 08:49:38;;;;;;;10.02;1.35;;;15.50;89.80;;;;;;5039067;28;20057;-59
2021/10/27 08:52:09;;;;;;;6.30;1.10;;;15.50;90.00;;;;;;5033424;28;20096;-60
2021/10/27 08:54:36;;;;;;;8.75;1.80;;;15.60;89.10;;;;;;5030081;28;20455;-60
2021/10/27 08:57:08;;;;;;;6.28;1.20;;;15.60;89.40;;;;;;5039094;28;20137;-60
2021/10/27 09:10:21;;;;;;;9.00;1.85;;;15.60;89.50;;;;;;5039451;28;20045;-60
2021/10/27 09:41:39;;;;;;;6.33;1.43;;;15.90;87.00;;;;;;5040655;28;20064;-59
2021/10/27 09:55:57;;;;;;;5.97;1.48;;;16.10;84.00;;;;;;5047962;28;20056;-59
2021/10/27 10:06:52;;;;;;;9.20;1.10;;;16.30;82.80;;;;;;5044219;28;20136;-59
2021/10/27 10:09:18;;;;;;;4.18;1.25;;;16.30;82.70;;;;;;5042024;28;20053;-60
2021/10/27 10:11:47;;;;;;;7.90;1.10;;;16.30;82.30;;;;;;5022378;28;20049;-59
2021/10/27 10:14:14;;;;;;;9.23;1.45;;;16.40;80.70;;;;;;5044258;28;20438;-60
2021/10/27 10:16:47;;;;;;;7.80;1.15;;;16.40;80.90;;;;;;5043282;28;20663;-60
2021/10/27 10:19:36;;;;;;;6.45;1.38;;;16.60;81.40;;;;;;5040916;28;20492;-60
2021/10/27 10:22:03;;;;;;;7.13;1.30;;;16.60;81.00;;;;;;5025520;28;20049;-59
2021/10/27 10:24:38;;;;;;;6.20;1.50;;;16.70;82.60;;;;;;5040901;28;20045;-58
2021/10/27 10:27:17;;;;;;;5.25;1.25;;;16.80;80.40;;;;;;5043436;28;20049;-58
2021/10/27 10:29:47;;;;;;;4.78;0.95;;;16.80;81.00;;;;;;5043136;28;20045;-58
2021/10/27 10:32:21;;;;;;;6.43;1.38;;;16.80;82.20;;;;;;5036609;28;20076;-58
2021/10/27 10:34:53;;;;;;;8.80;1.83;;;16.90;79.40;;;;;;5040779;28;20456;-59
2021/10/27 10:37:39;;;;;;;8.23;1.65;;;16.80;80.70;;;;;;5044800;28;20500;-60
2021/10/27 10:43:13;;;;;;;4.85;1.15;;;16.90;78.50;;;;;;5043039;28;20075;-59
2021/10/27 10:55:32;;;;;;;9.27;1.60;;;16.90;81.20;;;;;;5037136;28;20083;-59
2021/10/27 10:57:27;;;;;;;8.65;1.70;;;16.80;80.00;;;;;;5043541;28;20041;-60
2021/10/27 11:45:38;;;;;;;7.82;1.65;;;17.00;80.30;;;;;;5040616;28;20085;-60
2021/10/27 11:48:24;;;;;;;12.50;1.70;;;17.00;81.40;;;;;;5040925;28;20079;-59
2021/10/27 11:50:53;;;;;;;19.52;2.35;;;17.10;81.10;;;;;;5035580;28;20049;-59
2021/10/27 11:53:28;;;;;;;10.35;1.70;;;17.10;81.80;;;;;;5040193;28;20099;-57
2021/10/27 11:55:55;;;;;;;6.85;2.08;;;17.10;80.90;;;;;;5046031;28;20084;-58
2021/10/27 11:58:36;;;;;;;4.43;1.92;;;17.10;81.80;;;;;;5036520;28;20073;-58
2021/10/27 12:01:03;;;;;;;13.70;1.90;;;17.10;80.10;;;;;;5040741;28;20145;-61
2021/10/27 12:03:41;;;;;;;3.90;1.08;;;17.10;81.60;;;;;;5039305;28;20053;-58
2021/10/27 12:06:23;;;;;;;5.55;1.25;;;17.10;76.70;;;;;;5037679;28;20460;-58
2021/10/27 12:14:01;;;;;;;8.23;1.60;;;17.10;79.10;;;;;;5022362;28;20068;-59
2021/10/27 12:16:34;;;;;;;10.52;1.75;;;17.10;79.30;;;;;;5037754;28;20330;-59
2021/10/27 12:19:06;;;;;;;13.00;1.77;;;17.20;78.90;;;;;;5034307;28;20049;-58
2021/10/27 12:21:34;;;;;;;7.35;1.17;;;17.30;78.50;;;;;;5037559;28;20057;-58
2021/10/27 12:24:02;;;;;;;15.30;2.40;;;17.30;78.30;;;;;;5041299;28;20073;-59
2021/10/27 12:26:55;;;;;;;8.73;1.15;;;17.30;79.00;;;;;;5041492;28;20110;-59
2021/10/27 12:29:26;;;;;;;12.98;1.48;;;17.30;77.20;;;;;;5044890;28;20073;-59
2021/10/27 12:32:12;;;;;;;6.25;1.90;;;17.30;79.60;;;;;;5037523;28;20048;-59
2021/10/27 12:35:12;;;;;;;6.15;1.40;;;17.30;77.30;;;;;;5034179;28;20094;-59
2021/10/27 12:37:46;;;;;;;5.53;1.67;;;17.30;75.10;;;;;;5035670;28;20076;-58
2021/10/27 12:40:27;;;;;;;16.63;2.05;;;17.30;78.40;;;;;;5037062;28;20051;-59
2021/10/27 12:43:01;;;;;;;13.10;1.65;;;17.30;77.70;;;;;;5039104;28;20076;-58
2021/10/27 12:45:54;;;;;;;14.43;1.85;;;17.30;76.60;;;;;;5030953;28;20099;-58
2021/10/27 12:48:37;;;;;;;16.65;3.63;;;17.30;76.50;;;;;;5026655;28;20133;-59
2021/10/27 12:51:10;;;;;;;9.32;1.48;;;17.20;76.30;;;;;;5029199;28;20509;-59
2021/10/27 12:53:40;;;;;;;9.55;1.55;;;17.20;77.00;;;;;;5028082;28;20049;-60
2021/10/27 12:56:08;;;;;;;11.65;2.17;;;17.30;78.20;;;;;;5033567;28;20053;-59
2021/10/27 12:58:38;;;;;;;5.72;1.10;;;17.40;78.90;;;;;;5032723;28;20563;-60
2021/10/27 13:07:20;;;;;;;16.25;2.67;;;17.40;77.10;;;;;;5035596;28;20045;-60
2021/10/27 13:10:05;;;;;;;8.45;1.60;;;17.40;78.20;;;;;;5034033;28;20172;-60
2021/10/27 13:12:43;;;;;;;7.47;1.63;;;17.40;78.60;;;;;;5039329;28;20134;-59
2021/10/27 13:31:23;;;;;;;18.58;3.50;;;17.30;79.90;;;;;;5040116;28;20049;-59
2021/10/27 13:33:50;;;;;;;23.48;3.40;;;17.30;80.50;;;;;;5041943;28;20048;-59
2021/10/27 13:36:17;;;;;;;10.65;1.48;;;17.30;80.50;;;;;;5032968;28;20045;-59
2021/10/27 13:38:45;;;;;;;8.30;2.13;;;17.30;80.40;;;;;;5043130;28;20087;-59
2021/10/27 13:41:12;;;;;;;13.60;3.30;;;17.40;80.30;;;;;;5036415;28;20098;-61
2021/10/27 13:43:52;;;;;;;12.90;1.63;;;17.30;79.80;;;;;;5040337;28;20123;-58
2021/10/27 14:08:14;;;;;;;6.75;1.58;;;17.30;80.70;;;;;;5036969;28;20083;-60
2021/10/27 14:10:59;;;;;;;5.07;1.02;;;17.20;78.50;;;;;;5030488;28;20515;-60
2021/10/27 14:41:16;;;;;;;3.97;1.20;;;17.60;74.60;;;;;;5046590;28;20045;-63
2021/10/27 15:22:08;;;;;;;7.18;1.17;;;19.30;71.70;;;;;;5033738;28;20227;-66
2021/10/27 15:50:35;;;;;;;9.25;1.90;;;18.00;74.10;;;;;;5037030;28;20049;-67
2021/10/27 15:51:30;;;;;;;9.27;1.42;;;17.70;75.20;;;;;;5016778;28;20144;-67
2021/10/27 15:53:56;;;;;;;7.10;1.42;;;17.60;75.70;;;;;;5039667;28;20053;-66
2021/10/27 15:56:23;;;;;;;9.32;1.90;;;17.40;76.30;;;;;;5044061;28;20076;-67
2021/10/27 15:58:50;;;;;;;7.47;1.50;;;17.30;76.60;;;;;;5043908;28;20056;-65
2021/10/27 16:01:17;;;;;;;5.93;1.73;;;17.20;77.80;;;;;;5036756;28;20080;-65
2021/10/27 16:03:44;;;;;;;14.55;1.85;;;17.00;77.90;;;;;;5034954;28;20057;-65
2021/10/27 16:06:12;;;;;;;7.50;2.80;;;16.90;78.60;;;;;;5036394;28;20053;-71
2021/10/27 16:08:40;;;;;;;10.90;1.88;;;16.80;78.80;;;;;;5038349;28;20551;-68
2021/10/27 16:11:07;;;;;;;7.25;2.22;;;16.70;79.20;;;;;;5019562;28;20048;-65
2021/10/27 16:13:34;;;;;;;14.77;2.53;;;16.70;79.60;;;;;;5039175;28;20049;-66
2021/10/27 16:16:01;;;;;;;10.93;2.25;;;16.60;79.70;;;;;;5039511;28;20132;-66
2021/10/27 16:18:29;;;;;;;14.60;2.80;;;16.50;80.00;;;;;;5040324;28;20076;-69
2021/10/27 16:20:56;;;;;;;7.80;1.40;;;16.50;81.70;;;;;;5045043;28;20045;-65
2021/10/27 16:23:23;;;;;;;15.48;1.90;;;16.40;80.80;;;;;;5042997;28;20110;-66
2021/10/27 16:25:51;;;;;;;17.02;2.10;;;16.40;81.00;;;;;;5037378;28;20389;-65
2021/10/27 16:28:17;;;;;;;11.27;1.98;;;16.30;81.80;;;;;;5042165;28;20076;-66
2021/10/27 16:30:49;;;;;;;15.57;2.05;;;16.30;81.40;;;;;;5040904;28;20042;-63
2021/10/27 16:33:18;;;;;;;12.90;2.83;;;16.30;81.80;;;;;;5032684;28;20313;-66
2021/10/27 16:35:45;;;;;;;6.38;1.75;;;16.30;82.00;;;;;;5042270;28;20122;-65
2021/10/27 16:38:12;;;;;;;8.77;1.75;;;16.10;82.20;;;;;;5042752;28;20293;-64
2021/10/27 16:40:39;;;;;;;6.53;1.70;;;16.10;82.50;;;;;;5049092;28;20042;-65
2021/10/27 16:43:06;;;;;;;9.65;2.28;;;16.10;82.70;;;;;;5048106;28;20449;-65
2021/10/27 16:45:33;;;;;;;13.60;1.90;;;16.10;82.90;;;;;;5038766;28;20057;-63
2021/10/27 16:48:02;;;;;;;8.93;1.90;;;16.10;82.90;;;;;;5037287;28;20049;-69
2021/10/27 16:50:30;;;;;;;6.85;1.45;;;16.00;83.50;;;;;;5037529;28;20095;-67
2021/10/27 16:52:58;;;;;;;12.15;1.67;;;15.90;84.40;;;;;;5039685;28;20100;-66
2021/10/27 16:55:26;;;;;;;9.13;2.05;;;15.90;84.60;;;;;;5039627;28;20057;-65
2021/10/27 16:57:54;;;;;;;9.07;3.05;;;15.80;83.60;;;;;;5039250;28;20076;-65
2021/10/27 17:00:24;;;;;;;13.60;1.63;;;15.80;83.90;;;;;;5027001;28;20037;-65
2021/10/27 17:02:51;;;;;;;10.35;1.80;;;15.70;83.70;;;;;;5041880;28;20061;-64
2021/10/27 17:05:18;;;;;;;11.35;1.95;;;15.70;83.70;;;;;;5040687;28;20152;-65
2021/10/27 17:07:45;;;;;;;5.68;1.73;;;15.60;83.90;;;;;;5041763;28;20401;-64
2021/10/27 17:10:14;;;;;;;7.47;1.63;;;15.50;84.50;;;;;;5035797;28;20048;-65
2021/10/27 17:12:42;;;;;;;7.97;2.65;;;15.50;84.50;;;;;;5038331;28;20056;-65
2021/10/27 17:15:10;;;;;;;6.00;2.03;;;15.50;84.60;;;;;;5041202;28;20465;-65
2021/10/27 17:17:37;;;;;;;11.10;1.88;;;15.40;85.40;;;;;;5034921;28;20053;-65
2021/10/27 17:20:05;;;;;;;10.07;1.70;;;15.30;85.20;;;;;;5039517;28;20163;-65
2021/10/27 17:22:37;;;;;;;8.00;2.72;;;15.30;85.30;;;;;;5047276;28;20133;-65
2021/10/27 17:25:05;;;;;;;9.95;2.10;;;15.30;85.40;;;;;;5040952;28;20119;-65
2021/10/27 17:27:36;;;;;;;7.78;1.63;;;15.20;85.70;;;;;;5046466;28;20057;-65
2021/10/27 17:30:05;;;;;;;13.52;2.08;;;15.10;85.70;;;;;;5041183;28;20050;-65
2021/10/27 17:32:31;;;;;;;14.43;3.20;;;15.10;85.80;;;;;;5039927;28;20192;-64
2021/10/27 17:34:58;;;;;;;12.82;1.98;;;15.10;86.60;;;;;;5042703;28;20132;-64
2021/10/27 17:37:25;;;;;;;9.88;3.05;;;15.10;86.10;;;;;;5043640;28;20092;-64
2021/10/27 17:39:52;;;;;;;4.18;2.05;;;15.10;85.80;;;;;;5042613;28;20076;-63
2021/10/27 17:42:19;;;;;;;12.38;1.80;;;15.00;85.80;;;;;;5044733;28;20076;-64